createdAt,value
2019-03-24T08:02:08.202Z,9.90
2019-03-24T08:07:12.947Z,11.20
2019-03-24T08:12:17.756Z,11.70
2019-03-24T08:17:22.471Z,11.30
2019-03-24T08:22:27.246Z,10.70
2019-03-24T08:27:32.016Z,10.10
2019-03-24T08:32:36.742Z,10.20
2019-03-24T08:37:41.574Z,10.40
2019-03-24T08:42:46.316Z,10.00
2019-03-24T08:47:51.029Z,9.80
2019-03-24T08:52:56.302Z,9.60
2019-03-24T08:58:01.037Z,9.70
2019-03-24T09:03:05.806Z,10.10
2019-03-24T09:08:10.522Z,10.20
2019-03-24T09:13:15.306Z,10.60
2019-03-24T09:18:20.070Z,12.40
2019-03-24T09:23:24.844Z,11.40
2019-03-24T09:28:30.741Z,10.70
2019-03-24T09:33:35.507Z,10.70
2019-03-24T09:38:40.247Z,10.50
2019-03-24T09:43:44.987Z,10.50
2019-03-24T09:48:49.786Z,13.00
2019-03-24T09:53:54.657Z,14.90
2019-03-24T09:58:59.388Z,14.50
2019-03-24T10:04:04.178Z,12.70
2019-03-24T10:14:12.983Z,12.10
2019-03-24T10:19:17.740Z,12.20
2019-03-24T10:24:22.487Z,14.50
2019-03-24T10:29:27.225Z,18.10
2019-03-24T10:34:31.980Z,18.90
2019-03-24T10:39:36.732Z,20.40
2019-03-24T10:44:41.477Z,20.60
2019-03-24T10:49:46.309Z,20.70
2019-03-24T10:54:51.114Z,19.60
2019-03-24T10:59:55.845Z,19.60
2019-03-24T11:05:00.668Z,18.80
2019-03-24T11:10:05.924Z,17.40
2019-03-24T11:15:11.399Z,16.50
2019-03-24T11:25:20.068Z,16.90
2019-03-24T11:30:24.805Z,19.20
2019-03-24T11:35:29.551Z,19.70
2019-03-24T11:40:34.667Z,19.50
2019-03-24T11:45:39.469Z,18.30
2019-03-24T11:50:44.327Z,17.10
2019-03-24T11:55:49.068Z,16.60
2019-03-24T12:00:53.780Z,15.80
2019-03-24T12:05:58.617Z,14.60
2019-03-24T12:11:03.584Z,14.30
2019-03-24T12:16:08.503Z,14.20
2019-03-24T12:21:13.348Z,14.30
2019-03-24T12:26:18.301Z,14.30
2019-03-24T12:31:23.063Z,14.40
2019-03-24T12:36:27.875Z,14.60
2019-03-24T12:41:32.706Z,15.00
2019-03-24T12:46:37.552Z,15.70
2019-03-24T12:51:42.418Z,15.90
2019-03-24T12:56:47.248Z,15.60
2019-03-24T13:01:52.929Z,15.60
2019-03-24T13:12:02.139Z,14.30
2019-03-24T13:17:07.919Z,14.00
2019-03-24T13:22:12.748Z,14.30
2019-03-24T13:27:17.491Z,14.00
2019-03-24T13:32:22.297Z,13.80
2019-03-24T13:37:27.042Z,14.40
2019-03-24T13:46:29.549Z,14.30
2019-03-24T13:51:34.340Z,14.40
2019-03-24T13:56:39.292Z,15.00
2019-03-24T14:01:44.065Z,15.30
2019-03-24T14:06:48.804Z,15.90
2019-03-24T14:11:53.518Z,17.90
2019-03-24T14:16:58.347Z,17.90
2019-03-24T14:22:03.152Z,19.00
2019-03-24T14:27:07.930Z,20.80
2019-03-24T14:32:12.796Z,23.10
2019-03-24T14:37:17.560Z,24.70
2019-03-24T14:57:34.408Z,24.10
2019-03-24T15:02:40.854Z,23.90
2019-03-24T15:07:45.589Z,24.30
2019-03-24T15:12:50.380Z,25.20
2019-03-24T15:17:55.225Z,24.80
2019-03-24T15:22:59.955Z,25.70
2019-03-24T15:28:04.719Z,25.20
2019-03-24T15:33:09.527Z,23.80
2019-03-24T15:38:14.321Z,24.20
2019-03-24T15:43:19.265Z,23.30
2019-03-24T15:48:23.973Z,22.60
2019-03-24T15:53:28.723Z,21.50
2019-03-24T15:58:33.473Z,20.20
2019-03-24T16:03:38.203Z,18.30
2019-03-24T16:08:44.476Z,16.90
2019-03-24T16:13:49.491Z,15.90
2019-03-24T16:18:54.292Z,14.80
2019-03-24T16:23:59.081Z,14.20
2019-03-24T16:29:04.049Z,13.70
2019-03-24T16:34:08.866Z,13.20
2019-03-24T16:39:13.678Z,12.90
2019-03-24T16:44:18.431Z,12.40
2019-03-24T16:49:23.160Z,12.20
2019-03-24T16:54:27.926Z,12.00
2019-03-24T16:59:32.692Z,11.90
2019-03-24T17:04:37.496Z,11.80
2019-03-24T17:09:42.297Z,11.60
2019-03-24T17:14:47.084Z,11.40
2019-03-24T17:19:51.863Z,11.20
2019-03-24T17:24:56.635Z,11.00
2019-03-24T17:30:01.546Z,10.80
2019-03-24T17:35:07.969Z,10.70
2019-03-24T17:40:13.333Z,10.50
2019-03-24T17:45:18.387Z,10.50
2019-03-24T17:50:23.132Z,10.40
2019-03-24T17:55:30.776Z,10.30
2019-03-24T18:00:43.361Z,10.30
2019-03-24T18:05:48.799Z,10.10
2019-03-24T18:10:53.666Z,10.00
2019-03-24T18:15:58.567Z,9.90
2019-03-24T18:21:03.513Z,9.90
2019-03-24T18:26:08.511Z,10.00
2019-03-24T18:31:13.590Z,9.90
2019-03-24T18:36:18.356Z,9.80
2019-03-24T18:41:23.310Z,9.80
2019-03-24T18:46:28.141Z,9.70
2019-03-24T18:51:33.079Z,9.50
2019-03-24T18:56:38.108Z,9.50
2019-03-24T19:01:44.920Z,9.40
2019-03-24T19:06:49.774Z,9.30
2019-03-24T19:11:54.646Z,9.30
2019-03-24T19:16:59.516Z,9.20
2019-03-24T19:22:04.402Z,9.10
2019-03-24T19:27:09.271Z,9.10
2019-03-24T19:32:14.225Z,9.00
2019-03-24T19:37:20.414Z,8.80
2019-03-24T19:42:25.380Z,8.80
2019-03-24T19:47:32.335Z,8.80
2019-03-24T19:52:44.696Z,8.60
2019-03-24T19:57:43.976Z,8.70
2019-03-24T20:02:48.785Z,8.90
2019-03-24T20:07:53.656Z,9.00
2019-03-24T20:12:58.592Z,9.00
2019-03-24T20:18:03.358Z,9.20
2019-03-24T20:23:08.242Z,9.40
2019-03-24T20:28:13.261Z,9.40
2019-03-24T20:33:18.180Z,9.50
2019-03-24T20:38:23.093Z,9.30
2019-03-24T20:43:27.840Z,9.40
2019-03-24T20:48:32.694Z,9.50
2019-03-24T20:53:37.557Z,9.50
2019-03-24T20:58:42.449Z,9.40
2019-03-24T21:03:47.272Z,9.50
2019-03-24T21:08:52.106Z,9.30
2019-03-24T21:13:56.922Z,9.10
2019-03-24T21:19:01.702Z,9.10
2019-03-24T21:24:06.591Z,9.00
2019-03-24T21:29:11.445Z,9.10
2019-03-24T21:34:16.466Z,8.90
2019-03-24T21:39:21.352Z,8.90
2019-03-24T21:44:26.328Z,8.80
2019-03-24T21:49:31.087Z,8.70
2019-03-24T21:54:35.836Z,8.60
2019-03-24T21:59:40.618Z,8.40
2019-03-24T22:04:45.344Z,8.40
2019-03-24T22:09:50.067Z,8.30
2019-03-24T22:14:54.776Z,8.20
2019-03-24T22:19:59.526Z,8.10
2019-03-24T22:25:04.331Z,8.00
2019-03-24T22:30:09.689Z,8.10
2019-03-24T22:35:14.551Z,8.30
2019-03-24T22:40:19.371Z,8.20
2019-03-24T22:45:24.142Z,8.20
2019-03-24T22:50:28.984Z,8.20
2019-03-24T22:55:33.728Z,8.00
2019-03-24T23:00:47.129Z,8.10
2019-03-24T23:05:51.950Z,8.10
2019-03-24T23:10:56.708Z,8.30
2019-03-24T23:16:01.415Z,8.20
2019-03-24T23:21:06.495Z,8.20
2019-03-24T23:26:11.546Z,7.90
2019-03-24T23:31:17.910Z,7.80
2019-03-24T23:36:22.624Z,7.80
2019-03-24T23:41:27.331Z,7.60
2019-03-24T23:46:32.592Z,7.70
2019-03-24T23:51:37.308Z,7.70
2019-03-24T23:56:42.057Z,7.70
